createdAt,value
2018-05-13T00:07:23.671Z,35.20
2018-05-13T00:09:50.679Z,31.20
2018-05-13T00:12:18.384Z,34.30
2018-05-13T00:14:45.359Z,34.90
2018-05-13T00:17:12.384Z,37.00
2018-05-13T00:19:39.371Z,40.20
2018-05-13T00:22:07.175Z,54.80
2018-05-13T00:24:35.039Z,60.10
2018-05-13T00:27:02.022Z,58.40
2018-05-13T00:32:07.517Z,60.60
2018-05-13T00:34:34.495Z,66.00
2018-05-13T00:37:01.476Z,63.60
2018-05-13T00:39:28.779Z,69.20
2018-05-13T00:41:55.758Z,75.60
2018-05-13T00:44:23.619Z,83.10
2018-05-13T00:46:50.678Z,82.20
2018-05-13T00:49:17.651Z,79.90
2018-05-13T00:51:44.631Z,81.50
2018-05-13T00:54:23.407Z,79.70
2018-05-13T00:56:50.393Z,77.00
2018-05-13T00:59:17.366Z,82.40
2018-05-13T01:01:44.690Z,81.30
2018-05-13T01:04:11.673Z,77.70
2018-05-13T01:06:38.653Z,74.70
2018-05-13T01:09:05.679Z,73.70
2018-05-13T01:11:32.665Z,71.90
2018-05-13T01:13:59.635Z,72.80
2018-05-13T01:16:26.653Z,71.90
2018-05-13T01:18:54.478Z,72.90
2018-05-13T01:21:21.469Z,74.10
2018-05-13T01:23:48.956Z,71.80
2018-05-13T01:26:16.775Z,82.60
2018-05-13T01:28:43.748Z,89.00
2018-05-13T01:33:37.838Z,91.70
2018-05-13T01:36:04.815Z,90.60
2018-05-13T01:38:31.829Z,91.30
2018-05-13T01:40:58.813Z,91.90
2018-05-13T01:43:25.797Z,91.80
2018-05-13T01:45:53.563Z,92.10
2018-05-13T01:48:20.545Z,92.40
2018-05-13T01:50:47.551Z,91.00
2018-05-13T01:53:14.573Z,90.10
2018-05-13T01:55:43.635Z,88.80
2018-05-13T02:03:20.258Z,91.30
2018-05-13T02:05:47.241Z,91.40
2018-05-13T02:08:15.208Z,91.60
2018-05-13T02:10:43.172Z,90.10
2018-05-13T02:13:10.148Z,87.60
2018-05-13T02:15:37.169Z,86.80
2018-05-13T02:18:04.734Z,85.70
2018-05-13T02:20:31.710Z,84.30
2018-05-13T02:22:58.739Z,84.20
2018-05-13T02:25:26.673Z,84.20
2018-05-13T02:27:53.652Z,84.70
2018-05-13T02:30:21.507Z,86.10
2018-05-13T02:35:16.376Z,88.20
2018-05-13T02:37:43.405Z,87.80
2018-05-13T02:40:10.389Z,87.70
2018-05-13T02:42:37.371Z,88.80
2018-05-13T02:45:05.142Z,89.80
2018-05-13T02:47:32.127Z,89.90
2018-05-13T02:49:59.112Z,90.60
2018-05-13T02:52:26.144Z,89.80
2018-05-13T02:57:20.182Z,87.50
2018-05-13T02:59:47.209Z,86.00
2018-05-13T03:02:14.187Z,87.80
2018-05-13T03:04:41.178Z,89.20
2018-05-13T03:07:08.214Z,91.00
2018-05-13T03:09:35.204Z,89.90
2018-05-13T03:12:02.190Z,88.60
2018-05-13T03:14:29.197Z,89.70
2018-05-13T03:16:56.417Z,91.00
2018-05-13T03:19:23.392Z,90.80
2018-05-13T03:26:58.640Z,92.10
2018-05-13T03:29:25.613Z,92.30
2018-05-13T03:34:31.664Z,92.00
2018-05-13T03:36:58.655Z,92.50
2018-05-13T03:39:25.635Z,91.90
2018-05-13T03:41:52.664Z,91.10
2018-05-13T03:44:19.639Z,91.80
2018-05-13T03:46:46.619Z,92.70
2018-05-13T03:49:13.633Z,92.00
2018-05-13T03:51:40.614Z,91.20
2018-05-13T03:54:07.604Z,90.30
2018-05-13T03:56:34.620Z,89.80
2018-05-13T03:59:01.613Z,90.80
2018-05-13T04:01:28.592Z,90.30
2018-05-13T04:03:55.597Z,89.90
2018-05-13T04:06:22.586Z,89.80
2018-05-13T04:09:01.542Z,90.00
2018-05-13T04:14:13.303Z,90.70
2018-05-13T04:16:40.279Z,90.80
2018-05-13T04:19:07.261Z,92.00
2018-05-13T04:21:34.303Z,92.50
2018-05-13T04:24:01.284Z,92.90
2018-05-13T04:26:28.265Z,93.30
2018-05-13T04:28:55.308Z,94.60
2018-05-13T04:33:49.358Z,95.50
2018-05-13T04:36:16.393Z,94.30
2018-05-13T04:38:43.376Z,93.40
2018-05-13T04:41:10.357Z,93.20
2018-05-13T04:43:37.393Z,93.00
2018-05-13T04:46:04.620Z,92.90
2018-05-13T04:48:32.533Z,90.80
2018-05-13T04:53:38.017Z,88.40
2018-05-13T04:56:05.027Z,88.10
2018-05-13T04:58:32.006Z,87.50
2018-05-13T05:00:58.986Z,87.30
2018-05-13T05:03:26.014Z,85.40
2018-05-13T05:05:55.996Z,86.00
2018-05-13T05:08:22.976Z,83.70
2018-05-13T05:10:49.991Z,85.00
2018-05-13T05:13:16.971Z,84.10
2018-05-13T05:15:43.954Z,83.80
2018-05-13T05:18:10.981Z,82.60
2018-05-13T05:20:37.962Z,81.20
2018-05-13T05:23:04.942Z,82.30
2018-05-13T05:25:31.957Z,82.20
2018-05-13T05:27:58.952Z,81.80
2018-05-13T05:30:25.941Z,81.90
2018-05-13T05:32:52.956Z,82.10
2018-05-13T05:35:19.929Z,83.30
2018-05-13T05:37:47.885Z,82.30
2018-05-13T05:40:14.894Z,84.10
2018-05-13T05:45:08.941Z,82.00
2018-05-13T05:47:35.966Z,80.60
2018-05-13T05:50:02.947Z,81.10
2018-05-13T05:52:29.927Z,79.20
2018-05-13T05:54:56.959Z,78.80
2018-05-13T05:57:23.938Z,79.20
2018-05-13T05:59:50.924Z,76.00
2018-05-13T06:02:17.937Z,78.10
2018-05-13T06:04:44.927Z,75.40
2018-05-13T06:07:11.911Z,71.80
2018-05-13T06:09:38.938Z,71.20
2018-05-13T06:12:05.919Z,73.70
2018-05-13T06:14:33.871Z,70.40
2018-05-13T06:19:39.365Z,65.40
2018-05-13T06:22:06.361Z,61.90
2018-05-13T06:24:33.335Z,58.50
2018-05-13T06:27:00.317Z,52.90
2018-05-13T06:29:27.336Z,53.20
2018-05-13T06:31:56.138Z,48.30
2018-05-13T06:36:50.149Z,43.30
2018-05-13T06:39:17.126Z,41.20
2018-05-13T06:41:44.102Z,39.90
2018-05-13T06:44:11.121Z,39.70
2018-05-13T06:46:39.676Z,37.00
2018-05-13T06:49:05.284Z,34.70
2018-05-13T06:51:32.389Z,34.20
2018-05-13T06:53:59.358Z,34.50
2018-05-13T06:56:26.348Z,34.20
2018-05-13T06:58:53.363Z,33.60
2018-05-13T07:01:20.340Z,33.90
2018-05-13T07:03:47.316Z,33.60
2018-05-13T07:06:16.090Z,30.80
2018-05-13T07:08:43.072Z,30.90
2018-05-13T07:11:10.070Z,28.20
2018-05-13T07:13:37.098Z,28.90
2018-05-13T07:16:04.071Z,26.20
2018-05-13T07:18:31.063Z,26.60
2018-05-13T07:20:58.899Z,26.50
2018-05-13T07:23:25.881Z,25.70
2018-05-13T07:28:21.293Z,23.40
2018-05-13T07:30:48.282Z,24.10
2018-05-13T07:33:15.266Z,21.20
2018-05-13T07:35:42.321Z,19.70
2018-05-13T07:38:09.306Z,23.10
2018-05-13T07:40:36.279Z,21.30
2018-05-13T07:45:41.757Z,19.10
2018-05-13T07:48:08.829Z,19.80
2018-05-13T07:50:35.756Z,19.90
2018-05-13T07:53:04.872Z,21.00
2018-05-13T07:57:59.085Z,18.90
2018-05-13T08:00:25.951Z,17.60
2018-05-13T08:02:53.000Z,17.10
2018-05-13T08:05:19.976Z,16.50
2018-05-13T08:07:46.956Z,15.20
2018-05-13T08:10:14.926Z,15.40
2018-05-13T08:15:08.976Z,15.40
2018-05-13T08:17:35.981Z,16.10
2018-05-13T08:20:02.955Z,16.10
2018-05-13T08:22:29.942Z,14.50
2018-05-13T08:24:56.950Z,15.20
2018-05-13T08:27:23.931Z,14.70
2018-05-13T08:29:50.918Z,14.80
2018-05-13T08:32:17.949Z,13.80
2018-05-13T08:34:44.925Z,13.30
2018-05-13T08:37:11.903Z,13.70
2018-05-13T08:39:38.923Z,14.70
2018-05-13T08:42:05.908Z,13.40
2018-05-13T08:44:32.879Z,13.20
2018-05-13T08:46:59.900Z,11.40
2018-05-13T08:49:26.884Z,11.40
2018-05-13T08:51:53.866Z,10.80
2018-05-13T08:54:20.870Z,7.40
2018-05-13T08:56:47.845Z,8.00
2018-05-13T08:59:14.823Z,7.50
2018-05-13T09:04:09.706Z,7.40
2018-05-13T09:06:36.678Z,6.40
2018-05-13T09:11:43.038Z,4.50
2018-05-13T09:14:10.128Z,6.20
2018-05-13T09:16:37.027Z,5.50
2018-05-13T09:19:04.711Z,5.40
2018-05-13T09:21:31.733Z,5.70
2018-05-13T09:23:58.720Z,4.20
2018-05-13T09:26:26.688Z,5.20
2018-05-13T09:28:53.628Z,6.00
2018-05-13T09:31:21.464Z,5.90
2018-05-13T09:33:48.445Z,7.30
2018-05-13T09:36:15.462Z,5.90
2018-05-13T09:38:42.439Z,7.00
2018-05-13T09:41:09.431Z,6.80
2018-05-13T09:43:36.437Z,7.10
2018-05-13T09:46:03.420Z,7.50
2018-05-13T09:51:12.460Z,6.50
2018-05-13T09:53:40.321Z,5.90
2018-05-13T09:56:07.298Z,7.20
2018-05-13T09:58:34.323Z,6.80
2018-05-13T10:03:28.366Z,7.10
2018-05-13T10:05:56.095Z,8.00
2018-05-13T10:08:23.899Z,6.60
2018-05-13T10:10:50.875Z,7.30
2018-05-13T10:13:17.899Z,6.60
2018-05-13T10:15:44.876Z,6.30
2018-05-13T10:18:11.853Z,7.80
2018-05-13T10:20:39.809Z,6.70
2018-05-13T10:23:06.795Z,7.80
2018-05-13T10:25:33.781Z,7.30
2018-05-13T10:28:00.810Z,7.10
2018-05-13T10:30:27.786Z,7.70
2018-05-13T10:32:54.790Z,7.40
2018-05-13T10:35:21.828Z,7.40
2018-05-13T10:37:48.815Z,7.20
2018-05-13T10:40:15.790Z,7.50
2018-05-13T10:42:42.794Z,7.70
2018-05-13T10:45:10.711Z,7.60
2018-05-13T10:47:37.693Z,6.70
2018-05-13T10:50:04.716Z,5.90
2018-05-13T10:52:31.685Z,6.60
2018-05-13T10:54:58.672Z,7.20
2018-05-13T10:57:25.692Z,6.60
2018-05-13T10:59:52.674Z,6.20
2018-05-13T11:02:19.661Z,7.70
2018-05-13T11:04:47.655Z,7.10
2018-05-13T11:07:15.523Z,7.30
2018-05-13T11:09:43.357Z,6.40
2018-05-13T11:12:10.388Z,7.90
2018-05-13T11:14:37.364Z,7.80
2018-05-13T11:19:42.838Z,6.10
2018-05-13T11:22:09.812Z,5.30
2018-05-13T11:24:36.792Z,6.40
2018-05-13T11:27:03.806Z,5.70
2018-05-13T11:29:30.779Z,5.80
2018-05-13T11:31:58.591Z,5.40
2018-05-13T11:34:25.593Z,5.60
2018-05-13T11:36:53.400Z,6.40
2018-05-13T11:39:20.389Z,4.80
2018-05-13T11:41:47.408Z,5.40
2018-05-13T11:44:14.379Z,4.50
2018-05-13T11:46:41.410Z,3.00
2018-05-13T11:49:08.357Z,2.20
2018-05-13T11:51:35.330Z,1.60
2018-05-13T11:54:02.310Z,3.60
2018-05-13T11:56:29.370Z,1.90
2018-05-13T11:58:56.298Z,3.00
2018-05-13T12:01:23.265Z,2.80
2018-05-13T12:03:50.267Z,1.00
2018-05-13T12:08:44.308Z,3.00
2018-05-13T12:11:11.317Z,3.30
2018-05-13T12:13:38.298Z,3.50
2018-05-13T12:16:05.275Z,2.10
2018-05-13T12:18:32.295Z,2.50
2018-05-13T12:23:37.268Z,3.00
2018-05-13T12:26:04.193Z,2.90
2018-05-13T12:28:31.175Z,1.80
2018-05-13T12:30:58.187Z,1.30
2018-05-13T12:33:25.179Z,1.00
2018-05-13T12:35:53.097Z,1.40
2018-05-13T12:38:20.112Z,3.60
2018-05-13T12:40:47.085Z,2.20
2018-05-13T12:43:14.057Z,1.80
2018-05-13T12:45:41.080Z,2.00
2018-05-13T12:48:08.055Z,3.80
2018-05-13T12:50:35.032Z,2.40
2018-05-13T12:53:02.054Z,2.30
2018-05-13T12:55:29.026Z,1.70
2018-05-13T12:57:56.117Z,1.00
2018-05-13T13:00:23.020Z,2.10
2018-05-13T13:02:50.009Z,1.00
2018-05-13T13:05:17.018Z,1.20
2018-05-13T13:07:44.960Z,1.20
2018-05-13T13:12:43.727Z,1.00
2018-05-13T13:15:10.824Z,1.30
2018-05-13T13:17:37.770Z,1.00
2018-05-13T13:20:04.809Z,1.10
2018-05-13T13:22:31.778Z,1.00
2018-05-13T13:24:58.768Z,1.30
2018-05-13T13:27:25.759Z,1.80
2018-05-13T13:29:52.776Z,2.40
2018-05-13T13:32:19.833Z,1.20
2018-05-13T13:34:46.753Z,1.40
2018-05-13T13:37:13.781Z,1.60
2018-05-13T13:39:40.778Z,1.80
2018-05-13T13:42:07.756Z,1.00
2018-05-13T13:47:13.253Z,1.00
2018-05-13T13:49:40.272Z,1.00
2018-05-13T13:52:07.247Z,1.00
2018-05-13T13:54:34.217Z,1.00
2018-05-13T13:57:01.236Z,1.60
2018-05-13T13:59:28.284Z,1.00
2018-05-13T14:01:55.185Z,1.00
2018-05-13T14:04:22.206Z,1.00
2018-05-13T14:06:50.016Z,1.00
2018-05-13T14:09:17.002Z,1.00
2018-05-13T14:11:46.713Z,1.20
2018-05-13T14:14:13.690Z,1.00
2018-05-13T14:16:40.662Z,1.30
2018-05-13T14:19:07.677Z,3.50
2018-05-13T14:21:34.668Z,4.30
2018-05-13T14:24:01.645Z,6.60
2018-05-13T14:26:29.485Z,7.90
2018-05-13T14:28:56.457Z,8.20
2018-05-13T14:31:23.762Z,8.30
2018-05-13T14:33:50.780Z,9.80
2018-05-13T14:36:17.771Z,11.00
2018-05-13T14:38:44.774Z,12.30
2018-05-13T14:41:11.853Z,13.20
2018-05-13T14:43:38.861Z,12.90
2018-05-13T14:46:05.853Z,13.40
2018-05-13T14:48:32.864Z,13.10
2018-05-13T14:50:59.851Z,13.00
2018-05-13T14:53:26.840Z,12.90
2018-05-13T14:55:54.815Z,13.70
2018-05-13T14:58:21.804Z,13.20
2018-05-13T15:00:48.789Z,12.50
2018-05-13T15:03:16.806Z,13.20
2018-05-13T15:05:43.784Z,12.80
2018-05-13T15:10:50.030Z,11.90
2018-05-13T15:13:17.022Z,12.80
2018-05-13T15:15:44.005Z,12.90
2018-05-13T15:18:11.017Z,12.30
2018-05-13T15:20:37.997Z,12.80
2018-05-13T15:23:04.985Z,12.10
2018-05-13T15:25:32.008Z,12.80
2018-05-13T15:27:58.977Z,12.10
2018-05-13T15:30:25.963Z,13.70
2018-05-13T15:32:52.988Z,13.70
2018-05-13T15:35:19.972Z,14.10
2018-05-13T15:37:46.953Z,13.70
2018-05-13T15:40:13.966Z,13.70
2018-05-13T15:42:41.078Z,13.90
2018-05-13T15:45:07.945Z,14.00
2018-05-13T15:47:34.956Z,14.10
2018-05-13T15:50:01.936Z,13.30
2018-05-13T15:52:28.916Z,13.20
2018-05-13T15:54:56.051Z,12.60
2018-05-13T15:57:22.945Z,12.50
2018-05-13T15:59:49.920Z,12.20
2018-05-13T16:02:16.952Z,12.00
2018-05-13T16:04:44.815Z,11.90
2018-05-13T16:07:12.760Z,13.90
2018-05-13T16:09:39.779Z,13.70
2018-05-13T16:12:06.782Z,12.70
2018-05-13T16:14:33.755Z,12.70
2018-05-13T16:17:00.797Z,12.60
2018-05-13T16:19:27.793Z,13.00
2018-05-13T16:24:22.705Z,12.80
2018-05-13T16:26:51.636Z,12.60
2018-05-13T16:29:16.675Z,12.00
2018-05-13T16:31:43.695Z,11.70
2018-05-13T16:34:11.425Z,10.10
2018-05-13T16:39:16.915Z,10.10
2018-05-13T16:41:43.892Z,9.30
2018-05-13T16:44:10.880Z,9.50
2018-05-13T16:46:37.888Z,9.00
2018-05-13T16:49:04.867Z,9.40
2018-05-13T16:51:31.841Z,9.20
2018-05-13T16:53:58.884Z,9.50
2018-05-13T16:56:25.892Z,9.50
2018-05-13T16:58:52.867Z,10.20
2018-05-13T17:01:19.875Z,8.60
2018-05-13T17:03:46.863Z,9.80
2018-05-13T17:06:13.830Z,9.80
2018-05-13T17:08:40.849Z,9.60
2018-05-13T17:11:07.824Z,9.80
2018-05-13T17:13:35.122Z,9.10
2018-05-13T17:16:02.144Z,9.30
2018-05-13T17:18:29.122Z,9.40
2018-05-13T17:20:56.120Z,9.00
2018-05-13T17:23:23.149Z,9.80
2018-05-13T17:25:50.118Z,9.10
2018-05-13T17:28:17.094Z,9.20
2018-05-13T17:30:44.111Z,8.70
2018-05-13T17:33:11.093Z,8.70
2018-05-13T17:35:38.075Z,8.80
2018-05-13T17:38:05.107Z,8.70
2018-05-13T17:40:32.092Z,8.70
2018-05-13T17:42:59.126Z,8.80
2018-05-13T17:45:26.155Z,8.70
2018-05-13T17:47:53.226Z,8.50
2018-05-13T17:50:20.108Z,8.70
2018-05-13T17:52:47.127Z,8.50
2018-05-13T17:55:14.108Z,8.20
2018-05-13T17:57:41.127Z,8.60
2018-05-13T18:00:08.110Z,9.00
2018-05-13T18:05:13.613Z,9.30
2018-05-13T18:10:08.541Z,11.90
2018-05-13T18:12:35.548Z,11.50
2018-05-13T18:15:02.523Z,11.30
2018-05-13T18:17:30.443Z,13.10
2018-05-13T18:19:57.473Z,11.50
2018-05-13T18:22:24.454Z,11.90
2018-05-13T18:24:51.494Z,11.60
2018-05-13T18:27:18.460Z,10.90
2018-05-13T18:29:45.439Z,11.60
2018-05-13T18:32:12.453Z,11.30
2018-05-13T18:34:40.239Z,11.70
2018-05-13T18:37:07.216Z,12.30
2018-05-13T18:39:35.157Z,12.80
2018-05-13T18:42:02.184Z,14.20
2018-05-13T18:44:30.213Z,14.50
2018-05-13T18:46:57.145Z,13.00
2018-05-13T18:49:24.166Z,13.10
2018-05-13T18:51:51.155Z,14.10
2018-05-13T18:54:18.899Z,13.70
2018-05-13T18:56:45.931Z,13.60
2018-05-13T18:59:12.940Z,13.80
2018-05-13T19:01:39.905Z,13.80
2018-05-13T19:04:08.472Z,14.10
2018-05-13T19:06:36.303Z,13.40
2018-05-13T19:11:48.064Z,13.70
2018-05-13T19:14:15.951Z,15.00
2018-05-13T19:16:43.884Z,14.50
2018-05-13T19:19:10.862Z,14.90
2018-05-13T19:21:37.892Z,14.60
2018-05-13T19:24:04.876Z,14.20
2018-05-13T19:26:31.871Z,14.60
2018-05-13T19:28:58.877Z,13.50
2018-05-13T19:31:25.885Z,12.30
2018-05-13T19:36:31.967Z,11.30
2018-05-13T19:38:59.914Z,12.30
2018-05-13T19:41:26.899Z,12.00
2018-05-13T19:43:53.931Z,12.20
2018-05-13T19:46:20.958Z,12.20
2018-05-13T19:48:47.965Z,12.50
2018-05-13T19:51:15.006Z,12.60
2018-05-13T19:53:42.019Z,12.60
2018-05-13T19:56:09.354Z,12.30
2018-05-13T19:58:37.345Z,12.60
2018-05-13T20:01:04.343Z,13.20
2018-05-13T20:03:31.484Z,13.60
2018-05-13T20:05:58.364Z,13.90
2018-05-13T20:08:25.350Z,14.70
2018-05-13T20:10:52.343Z,14.80
2018-05-13T20:13:19.362Z,14.60
2018-05-13T20:15:46.376Z,14.00
2018-05-13T20:18:13.698Z,13.60
2018-05-13T20:20:40.721Z,13.90
2018-05-13T20:23:19.458Z,13.80
2018-05-13T20:25:46.415Z,14.10
2018-05-13T20:28:13.412Z,14.40
2018-05-13T20:30:40.450Z,14.80
2018-05-13T20:33:07.511Z,15.00
2018-05-13T20:35:34.514Z,15.00
2018-05-13T20:40:28.656Z,14.80
2018-05-13T20:42:55.639Z,14.60
2018-05-13T20:47:49.714Z,14.50
2018-05-13T20:50:16.750Z,14.40
2018-05-13T20:52:43.731Z,14.60
2018-05-13T20:55:10.817Z,14.80
2018-05-13T21:00:16.975Z,13.90
2018-05-13T21:02:43.953Z,14.30
2018-05-13T21:05:10.990Z,14.40
2018-05-13T21:07:37.960Z,14.10
2018-05-13T21:10:04.950Z,14.00
2018-05-13T21:12:31.916Z,14.40
2018-05-13T21:14:58.928Z,14.90
2018-05-13T21:20:10.106Z,14.20
2018-05-13T21:22:37.100Z,13.70
2018-05-13T21:25:04.091Z,14.50
2018-05-13T21:27:31.111Z,14.10
2018-05-13T21:29:58.102Z,14.00
2018-05-13T21:32:25.084Z,14.60
2018-05-13T21:34:52.194Z,13.80
2018-05-13T21:37:19.105Z,14.00
2018-05-13T21:39:46.116Z,14.50
2018-05-13T21:42:13.151Z,15.40
2018-05-13T21:47:18.285Z,14.80
2018-05-13T21:49:45.281Z,15.40
2018-05-13T21:52:12.262Z,14.80
2018-05-13T21:54:39.361Z,15.60
2018-05-13T21:57:06.264Z,15.70
2018-05-13T21:59:33.265Z,16.20
2018-05-13T22:02:00.268Z,15.70
2018-05-13T22:04:27.247Z,16.50
2018-05-13T22:06:54.227Z,16.50
2018-05-13T22:09:21.260Z,17.10
2018-05-13T22:11:48.242Z,16.70
2018-05-13T22:14:15.220Z,15.70
2018-05-13T22:16:42.243Z,16.50
2018-05-13T22:19:09.236Z,16.90
2018-05-13T22:21:36.227Z,17.10
2018-05-13T22:24:03.659Z,17.60
2018-05-13T22:26:30.633Z,18.00
2018-05-13T22:28:57.619Z,18.40
2018-05-13T22:31:24.861Z,18.30
2018-05-13T22:33:51.880Z,18.70
2018-05-13T22:36:18.899Z,18.00
2018-05-13T22:38:45.947Z,17.90
2018-05-13T22:41:13.367Z,18.30
2018-05-13T22:43:40.431Z,17.80
2018-05-13T22:46:07.500Z,18.30
2018-05-13T22:48:34.486Z,18.10
2018-05-13T22:51:01.466Z,18.10
2018-05-13T22:55:55.552Z,17.80
2018-05-13T22:58:25.670Z,18.30
2018-05-13T23:00:52.675Z,18.80
2018-05-13T23:03:19.663Z,18.80
2018-05-13T23:13:25.764Z,18.60
2018-05-13T23:18:19.842Z,18.30
2018-05-13T23:20:47.286Z,18.00
2018-05-13T23:23:14.270Z,17.70
2018-05-13T23:25:42.061Z,18.20
2018-05-13T23:28:09.087Z,18.60
2018-05-13T23:30:36.115Z,18.50
2018-05-13T23:33:03.108Z,18.10
2018-05-13T23:35:30.127Z,18.40
2018-05-13T23:37:57.103Z,18.60
2018-05-13T23:40:24.096Z,18.00
2018-05-13T23:45:18.186Z,17.30
2018-05-13T23:47:45.166Z,17.30
2018-05-13T23:50:12.213Z,17.80
2018-05-13T23:52:39.205Z,18.10
2018-05-13T23:55:06.203Z,18.90
2018-05-13T23:57:33.249Z,19.30
